createdAt,value
2023-07-05T00:00:08.079Z,18.12
2023-07-05T00:01:08.254Z,18.11
2023-07-05T00:02:08.036Z,18.12
2023-07-05T00:03:08.017Z,18.11
2023-07-05T00:04:08.009Z,18.08
2023-07-05T00:05:07.975Z,18.15
2023-07-05T00:06:07.977Z,18.12
2023-07-05T00:07:07.936Z,18.10
2023-07-05T00:08:07.930Z,18.12
2023-07-05T00:09:07.898Z,18.14
2023-07-05T00:10:07.881Z,18.15
2023-07-05T00:11:07.854Z,18.21
2023-07-05T00:12:07.866Z,18.10
2023-07-05T00:13:07.837Z,18.10
2023-07-05T00:14:07.896Z,18.12
2023-07-05T00:15:07.780Z,18.14
2023-07-05T00:16:07.794Z,18.12
2023-07-05T00:17:07.724Z,18.15
2023-07-05T00:18:07.757Z,18.12
2023-07-05T00:19:07.697Z,18.14
2023-07-05T00:20:07.662Z,18.14
2023-07-05T00:21:07.678Z,18.14
2023-07-05T00:22:07.623Z,18.11
2023-07-05T00:23:07.631Z,18.15
2023-07-05T00:24:07.586Z,18.17
2023-07-05T00:25:07.556Z,18.15
2023-07-05T00:26:07.545Z,18.10
2023-07-05T00:27:07.514Z,18.15
2023-07-05T00:28:07.521Z,18.21
2023-07-05T00:29:07.487Z,18.21
2023-07-05T00:30:07.465Z,18.20
2023-07-05T00:31:07.542Z,18.20
2023-07-05T00:32:07.418Z,18.25
2023-07-05T00:33:07.432Z,18.20
2023-07-05T00:34:07.384Z,18.23
2023-07-05T00:35:07.354Z,18.15
2023-07-05T00:36:07.334Z,18.25
2023-07-05T00:37:07.315Z,18.25
2023-07-05T00:38:07.301Z,18.27
2023-07-05T00:39:07.274Z,18.25
2023-07-05T00:40:07.249Z,18.29
2023-07-05T00:41:07.233Z,18.29
2023-07-05T00:42:07.238Z,18.25
2023-07-05T00:43:07.194Z,18.29
2023-07-05T00:44:07.352Z,18.30
2023-07-05T00:45:07.152Z,18.32
2023-07-05T00:46:07.157Z,18.27
2023-07-05T00:47:07.108Z,18.29
2023-07-05T00:48:07.097Z,18.29
2023-07-05T00:49:07.086Z,18.27
2023-07-05T00:50:07.057Z,18.27
2023-07-05T00:51:07.038Z,18.27
2023-07-05T00:52:07.008Z,18.25
2023-07-05T00:53:06.990Z,18.26
2023-07-05T00:54:06.964Z,18.37
2023-07-05T00:55:06.938Z,18.32
2023-07-05T00:56:06.926Z,18.36
2023-07-05T00:57:06.904Z,18.27
2023-07-05T00:58:06.891Z,18.29
2023-07-05T00:59:07.079Z,18.29
2023-07-05T01:00:06.860Z,18.33
2023-07-05T01:01:06.884Z,18.32
2023-07-05T01:02:06.914Z,18.37
2023-07-05T01:03:06.782Z,18.41
2023-07-05T01:04:06.759Z,18.39
2023-07-05T01:05:06.757Z,18.42
2023-07-05T01:06:06.716Z,18.41
2023-07-05T01:07:06.693Z,18.42
2023-07-05T01:08:06.690Z,18.51
2023-07-05T01:09:06.655Z,18.50
2023-07-05T01:10:06.644Z,18.44
2023-07-05T01:11:06.611Z,18.44
2023-07-05T01:12:06.594Z,18.51
2023-07-05T01:13:06.586Z,18.45
2023-07-05T01:14:06.552Z,18.47
2023-07-05T01:15:06.527Z,18.55
2023-07-05T01:16:06.537Z,18.47
2023-07-05T01:17:06.517Z,18.48
2023-07-05T01:18:06.515Z,18.44
2023-07-05T01:19:06.444Z,18.42
2023-07-05T01:20:06.421Z,18.45
2023-07-05T01:21:06.397Z,18.50
2023-07-05T01:22:06.399Z,18.42
2023-07-05T01:23:06.359Z,18.39
2023-07-05T01:24:06.338Z,18.39
2023-07-05T01:25:06.320Z,18.47
2023-07-05T01:26:06.316Z,18.37
2023-07-05T01:27:06.281Z,18.39
2023-07-05T01:28:06.268Z,18.39
2023-07-05T01:29:06.284Z,18.41
2023-07-05T01:30:06.239Z,18.37
2023-07-05T01:31:06.226Z,18.32
2023-07-05T01:32:06.196Z,18.32
2023-07-05T01:33:06.190Z,18.30
2023-07-05T01:34:06.132Z,18.27
2023-07-05T01:35:06.112Z,18.26
2023-07-05T01:36:06.089Z,18.21
2023-07-05T01:37:06.069Z,18.21
2023-07-05T01:38:06.049Z,18.20
2023-07-05T01:39:06.032Z,18.17
2023-07-05T01:40:06.019Z,18.21
2023-07-05T01:41:05.987Z,18.11
2023-07-05T01:42:05.974Z,18.17
2023-07-05T01:43:05.948Z,18.08
2023-07-05T01:44:05.924Z,18.08
2023-07-05T01:45:05.911Z,18.12
2023-07-05T01:46:05.884Z,17.97
2023-07-05T01:47:05.941Z,17.90
2023-07-05T01:48:05.869Z,17.95
2023-07-05T01:49:05.879Z,17.93
2023-07-05T01:50:05.807Z,17.96
2023-07-05T01:51:05.781Z,17.81
2023-07-05T01:52:05.810Z,17.82
2023-07-05T01:53:05.741Z,17.89
2023-07-05T01:54:05.725Z,17.86
2023-07-05T01:55:05.709Z,17.78
2023-07-05T01:56:05.675Z,17.77
2023-07-05T01:57:05.656Z,17.87
2023-07-05T01:58:05.644Z,17.75
2023-07-05T01:59:05.632Z,17.74
2023-07-05T02:00:05.601Z,17.72
2023-07-05T02:01:05.626Z,17.70
2023-07-05T02:02:05.717Z,17.66
2023-07-05T02:03:05.594Z,17.70
2023-07-05T02:04:05.562Z,17.59
2023-07-05T02:05:05.580Z,17.66
2023-07-05T02:06:05.476Z,17.56
2023-07-05T02:07:05.448Z,17.63
2023-07-05T02:08:05.432Z,17.54
2023-07-05T02:09:05.407Z,17.68
2023-07-05T02:10:05.397Z,17.54
2023-07-05T02:11:05.369Z,17.55
2023-07-05T02:12:05.350Z,17.63
2023-07-05T02:13:05.324Z,17.48
2023-07-05T02:14:05.330Z,17.46
2023-07-05T02:15:05.287Z,17.43
2023-07-05T02:16:05.278Z,17.43
2023-07-05T02:17:05.249Z,17.49
2023-07-05T02:18:05.245Z,17.41
2023-07-05T02:19:05.203Z,17.51
2023-07-05T02:20:05.245Z,17.40
2023-07-05T02:21:05.167Z,17.52
2023-07-05T02:22:05.140Z,17.55
2023-07-05T02:23:05.119Z,17.55
2023-07-05T02:24:05.103Z,17.43
2023-07-05T02:25:05.080Z,17.43
2023-07-05T02:26:05.061Z,17.46
2023-07-05T02:27:05.039Z,17.44
2023-07-05T02:28:05.021Z,17.38
2023-07-05T02:29:04.998Z,17.43
2023-07-05T02:30:04.987Z,17.43
2023-07-05T02:31:05.018Z,17.43
2023-07-05T02:32:04.934Z,17.41
2023-07-05T02:33:04.947Z,17.40
2023-07-05T02:34:04.896Z,17.44
2023-07-05T02:35:04.874Z,17.41
2023-07-05T02:36:04.876Z,17.38
2023-07-05T02:37:04.830Z,17.40
2023-07-05T02:38:04.854Z,17.31
2023-07-05T02:39:04.802Z,17.49
2023-07-05T02:40:04.809Z,17.46
2023-07-05T02:41:04.745Z,17.38
2023-07-05T02:42:04.768Z,17.43
2023-07-05T02:43:04.722Z,17.34
2023-07-05T02:44:04.685Z,17.33
2023-07-05T02:45:04.664Z,17.30
2023-07-05T02:46:04.706Z,17.38
2023-07-05T02:47:04.623Z,17.33
2023-07-05T02:48:04.636Z,17.33
2023-07-05T02:49:04.576Z,17.37
2023-07-05T02:50:04.561Z,17.34
2023-07-05T02:51:04.537Z,17.33
2023-07-05T02:52:04.540Z,17.43
2023-07-05T02:53:04.504Z,17.43
2023-07-05T02:54:04.474Z,17.41
2023-07-05T02:55:04.458Z,17.33
2023-07-05T02:56:04.431Z,17.51
2023-07-05T02:57:04.408Z,17.49
2023-07-05T02:58:04.389Z,17.46
2023-07-05T02:59:04.396Z,17.44
2023-07-05T03:00:04.380Z,17.34
2023-07-05T03:01:04.321Z,17.49
2023-07-05T03:02:04.404Z,17.46
2023-07-05T03:03:04.328Z,17.51
2023-07-05T03:04:04.278Z,17.37
2023-07-05T03:05:04.241Z,17.36
2023-07-05T03:06:04.218Z,17.40
2023-07-05T03:07:04.197Z,17.49
2023-07-05T03:08:04.196Z,17.40
2023-07-05T03:09:04.152Z,17.49
2023-07-05T03:10:04.147Z,17.41
2023-07-05T03:11:04.121Z,17.37
2023-07-05T03:12:04.101Z,17.48
2023-07-05T03:13:04.074Z,17.49
2023-07-05T03:14:04.193Z,17.41
2023-07-05T03:15:04.038Z,17.48
2023-07-05T03:16:04.068Z,17.51
2023-07-05T03:17:04.070Z,17.51
2023-07-05T03:18:04.023Z,17.51
2023-07-05T03:19:03.940Z,17.48
2023-07-05T03:20:03.923Z,17.62
2023-07-05T03:21:03.906Z,17.62
2023-07-05T03:22:03.884Z,17.58
2023-07-05T03:23:03.870Z,17.56
2023-07-05T03:24:03.864Z,17.56
2023-07-05T03:25:03.824Z,17.62
2023-07-05T03:26:03.834Z,17.55
2023-07-05T03:27:03.774Z,17.59
2023-07-05T03:28:03.761Z,17.59
2023-07-05T03:29:03.739Z,17.59
2023-07-05T03:30:03.723Z,17.62
2023-07-05T03:31:03.697Z,17.64
2023-07-05T03:32:03.750Z,17.66
2023-07-05T03:33:03.719Z,17.64
2023-07-05T03:34:03.641Z,17.71
2023-07-05T03:35:03.611Z,17.71
2023-07-05T03:36:03.605Z,17.71
2023-07-05T03:37:03.600Z,17.74
2023-07-05T03:38:03.546Z,17.77
2023-07-05T03:39:03.535Z,17.74
2023-07-05T03:40:03.529Z,17.84
2023-07-05T03:41:03.483Z,17.81
2023-07-05T03:42:03.505Z,17.89
2023-07-05T03:43:03.446Z,17.86
2023-07-05T03:44:03.420Z,17.82
2023-07-05T03:45:03.417Z,17.86
2023-07-05T03:46:03.415Z,17.90
2023-07-05T03:47:03.357Z,17.86
2023-07-05T03:48:03.427Z,17.86
2023-07-05T03:49:03.317Z,17.89
2023-07-05T03:50:03.304Z,17.86
2023-07-05T03:51:03.268Z,17.82
2023-07-05T03:52:03.259Z,17.89
2023-07-05T03:53:03.246Z,17.82
2023-07-05T03:54:03.221Z,17.86
2023-07-05T03:55:03.189Z,17.87
2023-07-05T03:56:03.207Z,17.92
2023-07-05T03:57:03.149Z,17.82
2023-07-05T03:58:03.131Z,17.86
2023-07-05T03:59:03.105Z,17.79
2023-07-05T04:00:03.088Z,17.87
2023-07-05T04:01:03.067Z,17.86
2023-07-05T04:02:03.046Z,17.84
2023-07-05T04:03:03.111Z,17.79
2023-07-05T04:04:03.125Z,17.92
2023-07-05T04:05:02.986Z,17.87
2023-07-05T04:06:02.980Z,17.78
2023-07-05T04:07:02.943Z,17.86
2023-07-05T04:08:02.928Z,17.97
2023-07-05T04:09:02.900Z,17.89
2023-07-05T04:10:02.881Z,17.90
2023-07-05T04:11:02.859Z,17.97
2023-07-05T04:12:02.871Z,17.95
2023-07-05T04:13:02.811Z,17.89
2023-07-05T04:14:02.893Z,17.96
2023-07-05T04:15:02.772Z,17.90
2023-07-05T04:16:02.839Z,17.81
2023-07-05T04:17:02.726Z,17.89
2023-07-05T04:18:02.789Z,17.92
2023-07-05T04:19:02.711Z,17.96
2023-07-05T04:20:02.663Z,17.93
2023-07-05T04:21:02.669Z,17.97
2023-07-05T04:22:02.629Z,17.81
2023-07-05T04:23:02.611Z,17.87
2023-07-05T04:24:02.581Z,17.79
2023-07-05T04:25:02.580Z,17.84
2023-07-05T04:26:02.546Z,17.82
2023-07-05T04:27:02.527Z,17.92
2023-07-05T04:28:02.519Z,17.89
2023-07-05T04:29:02.477Z,17.92
2023-07-05T04:30:02.448Z,17.90
2023-07-05T04:31:02.511Z,17.84
2023-07-05T04:32:02.431Z,17.81
2023-07-05T04:33:02.426Z,17.87
2023-07-05T04:34:02.374Z,17.79
2023-07-05T04:35:02.367Z,17.93
2023-07-05T04:36:02.339Z,17.81
2023-07-05T04:37:02.317Z,17.87
2023-07-05T04:38:02.300Z,17.81
2023-07-05T04:39:02.287Z,17.84
2023-07-05T04:40:03.454Z,17.81
2023-07-05T04:41:02.234Z,17.82
2023-07-05T04:42:02.200Z,17.78
2023-07-05T04:43:02.190Z,17.77
2023-07-05T04:44:02.191Z,17.68
2023-07-05T04:45:02.146Z,17.56
2023-07-05T04:46:02.214Z,17.41
2023-07-05T04:47:02.099Z,17.33
2023-07-05T04:48:02.088Z,17.21
2023-07-05T04:49:02.063Z,16.97
2023-07-05T04:50:02.031Z,16.96
2023-07-05T04:51:02.018Z,16.83
2023-07-05T04:52:02.025Z,16.73
2023-07-05T04:53:01.977Z,16.70
2023-07-05T04:54:01.965Z,16.70
2023-07-05T04:55:01.929Z,16.68
2023-07-05T04:56:01.969Z,16.70
2023-07-05T04:57:01.900Z,16.68
2023-07-05T04:58:01.888Z,16.64
2023-07-05T04:59:01.857Z,16.58
2023-07-05T05:00:01.846Z,16.52
2023-07-05T05:01:01.920Z,16.52
2023-07-05T05:02:01.861Z,16.49
2023-07-05T05:03:01.824Z,16.48
2023-07-05T05:04:01.801Z,16.42
2023-07-05T05:05:01.719Z,16.48
2023-07-05T05:06:01.695Z,16.41
2023-07-05T05:07:01.683Z,16.35
2023-07-05T05:08:01.649Z,16.48
2023-07-05T05:09:01.642Z,16.41
2023-07-05T05:10:01.623Z,16.42
2023-07-05T05:11:01.642Z,16.34
2023-07-05T05:12:01.568Z,16.38
2023-07-05T05:13:01.559Z,16.24
2023-07-05T05:14:01.630Z,16.31
2023-07-05T05:15:01.513Z,16.20
2023-07-05T05:16:01.502Z,16.21
2023-07-05T05:17:01.504Z,16.28
2023-07-05T05:18:01.478Z,16.27
2023-07-05T05:19:01.420Z,16.28
2023-07-05T05:20:01.394Z,16.25
2023-07-05T05:21:01.424Z,16.23
2023-07-05T05:22:01.350Z,16.25
2023-07-05T05:23:01.353Z,16.17
2023-07-05T05:24:01.307Z,16.15
2023-07-05T05:25:01.302Z,16.07
2023-07-05T05:26:01.274Z,16.15
2023-07-05T05:27:01.264Z,16.05
2023-07-05T05:28:01.231Z,16.12
2023-07-05T05:29:01.209Z,16.17
2023-07-05T05:30:01.211Z,16.09
2023-07-05T05:31:01.203Z,16.04
2023-07-05T05:32:01.157Z,16.02
2023-07-05T05:33:01.205Z,16.08
2023-07-05T05:34:01.099Z,16.08
2023-07-05T05:35:01.097Z,16.14
2023-07-05T05:36:01.057Z,16.09
2023-07-05T05:37:01.041Z,16.07
2023-07-05T05:38:01.010Z,16.05
2023-07-05T05:39:01.008Z,16.05
2023-07-05T05:40:00.968Z,16.01
2023-07-05T05:41:00.944Z,16.02
2023-07-05T05:42:00.946Z,16.08
2023-07-05T05:43:00.900Z,16.04
2023-07-05T05:44:00.874Z,16.08
2023-07-05T05:45:00.859Z,16.08
2023-07-05T05:46:00.832Z,16.09
2023-07-05T05:47:00.907Z,16.12
2023-07-05T05:48:00.852Z,16.23
2023-07-05T05:49:00.769Z,16.25
2023-07-05T05:50:00.755Z,16.34
2023-07-05T05:51:00.722Z,16.31
2023-07-05T05:52:00.698Z,16.25
2023-07-05T05:53:00.692Z,16.38
2023-07-05T05:54:00.666Z,16.33
2023-07-05T05:55:00.638Z,16.30
2023-07-05T05:56:00.614Z,16.45
2023-07-05T05:57:00.595Z,16.42
2023-07-05T05:58:00.570Z,16.41
2023-07-05T05:59:00.552Z,16.45
2023-07-05T06:00:00.554Z,16.49
2023-07-05T06:01:00.521Z,16.50
2023-07-05T06:02:00.530Z,16.49
2023-07-05T06:03:00.546Z,16.60
2023-07-05T06:04:00.492Z,16.57
2023-07-05T06:05:00.431Z,16.63
2023-07-05T06:06:00.419Z,16.60
2023-07-05T06:07:00.401Z,16.73
2023-07-05T06:08:00.377Z,16.68
2023-07-05T06:09:00.343Z,16.79
2023-07-05T06:10:00.323Z,16.85
2023-07-05T06:11:00.298Z,16.88
2023-07-05T06:12:00.282Z,16.79
2023-07-05T06:13:00.252Z,16.73
2023-07-05T06:14:00.409Z,16.70
2023-07-05T06:15:00.211Z,16.73
2023-07-05T06:16:12.766Z,16.64
2023-07-05T06:17:00.313Z,16.67
2023-07-05T06:18:00.207Z,16.61
2023-07-05T06:19:00.133Z,16.66
2023-07-05T06:20:00.163Z,16.63
2023-07-05T06:21:00.090Z,16.60
2023-07-05T06:22:00.066Z,16.56
2023-07-05T06:23:00.051Z,16.67
2023-07-05T06:24:00.020Z,16.66
2023-07-05T06:24:59.999Z,16.66
2023-07-05T06:25:59.972Z,16.67
2023-07-05T06:26:59.951Z,16.64
2023-07-05T06:27:59.954Z,16.66
2023-07-05T06:28:59.910Z,16.57
2023-07-05T06:29:59.888Z,16.61
2023-07-05T06:30:59.897Z,16.61
2023-07-05T06:31:59.843Z,16.60
2023-07-05T06:32:59.835Z,16.56
2023-07-05T06:33:59.802Z,16.53
2023-07-05T06:34:59.786Z,16.60
2023-07-05T06:35:59.773Z,16.64
2023-07-05T06:36:59.760Z,16.61
2023-07-05T06:37:59.738Z,16.68
2023-07-05T06:38:59.722Z,16.67
2023-07-05T06:39:59.665Z,16.70
2023-07-05T06:40:59.647Z,16.68
2023-07-05T06:41:59.637Z,16.67
2023-07-05T06:42:59.604Z,16.68
2023-07-05T06:43:59.581Z,16.68
2023-07-05T06:44:59.573Z,16.64
2023-07-05T06:45:59.579Z,16.66
2023-07-05T06:46:59.521Z,16.66
2023-07-05T06:47:59.531Z,16.68
2023-07-05T06:48:59.478Z,16.66
2023-07-05T06:49:59.458Z,16.67
2023-07-05T06:50:59.436Z,16.78
2023-07-05T06:51:59.515Z,16.70
2023-07-05T06:53:16.935Z,16.71
2023-07-05T06:53:59.374Z,16.70
2023-07-05T06:54:59.345Z,16.68
2023-07-05T06:55:59.320Z,16.79
2023-07-05T06:56:59.303Z,16.81
2023-07-05T06:57:59.281Z,16.93
2023-07-05T06:58:59.287Z,16.83
2023-07-05T06:59:59.241Z,16.82
2023-07-05T07:00:59.219Z,16.89
2023-07-05T07:01:59.240Z,16.83
2023-07-05T07:02:59.217Z,16.82
2023-07-05T07:03:59.215Z,16.88
2023-07-05T07:04:59.130Z,16.76
2023-07-05T07:05:59.116Z,16.79
2023-07-05T07:06:59.086Z,16.85
2023-07-05T07:07:59.086Z,16.85
2023-07-05T07:08:59.052Z,16.94
2023-07-05T07:09:59.027Z,17.01
2023-07-05T07:10:59.010Z,17.06
2023-07-05T07:11:59.002Z,17.07
2023-07-05T07:12:58.975Z,17.14
2023-07-05T07:13:59.021Z,17.03
2023-07-05T07:14:58.932Z,17.03
2023-07-05T07:15:58.923Z,16.94
2023-07-05T07:16:58.872Z,16.89
2023-07-05T07:17:58.873Z,16.96
2023-07-05T07:18:58.832Z,16.98
2023-07-05T07:19:58.808Z,17.03
2023-07-05T07:20:58.796Z,17.04
2023-07-05T07:21:58.766Z,17.06
2023-07-05T07:22:58.751Z,17.07
2023-07-05T07:23:58.770Z,17.08
2023-07-05T07:24:59.724Z,17.06
2023-07-05T07:25:58.686Z,17.12
2023-07-05T07:26:58.670Z,17.04
2023-07-05T07:27:58.643Z,17.03
2023-07-05T07:28:58.621Z,17.06
2023-07-05T07:29:58.595Z,17.12
2023-07-05T07:30:58.590Z,17.14
2023-07-05T07:31:58.585Z,17.21
2023-07-05T07:32:58.564Z,17.07
2023-07-05T07:33:58.516Z,16.98
2023-07-05T07:34:58.490Z,17.11
2023-07-05T07:35:58.464Z,17.01
2023-07-05T07:36:58.452Z,16.96
2023-07-05T07:37:58.423Z,16.97
2023-07-05T07:38:58.404Z,16.91
2023-07-05T07:39:58.402Z,16.91
2023-07-05T07:40:58.361Z,16.83
2023-07-05T07:41:58.345Z,16.81
2023-07-05T07:42:58.317Z,16.81
2023-07-05T07:43:58.295Z,16.88
2023-07-05T07:44:58.273Z,16.82
2023-07-05T07:45:58.273Z,16.73
2023-07-05T07:46:58.229Z,16.63
2023-07-05T07:47:58.234Z,16.64
2023-07-05T07:48:58.221Z,16.66
2023-07-05T07:49:58.168Z,16.52
2023-07-05T07:50:58.140Z,16.50
2023-07-05T07:51:58.118Z,16.56
2023-07-05T07:52:58.104Z,16.57
2023-07-05T07:53:58.082Z,16.60
2023-07-05T07:54:58.063Z,16.56
2023-07-05T07:55:58.070Z,16.57
2023-07-05T07:56:58.021Z,16.56
2023-07-05T07:57:57.999Z,16.49
2023-07-05T07:58:57.968Z,16.57
2023-07-05T07:59:57.941Z,16.48
2023-07-05T08:00:57.930Z,16.46
2023-07-05T08:01:57.906Z,16.48
2023-07-05T08:02:57.928Z,16.46
2023-07-05T08:04:00.984Z,16.43
2023-07-05T08:04:57.952Z,16.41
2023-07-05T08:05:57.826Z,16.53
2023-07-05T08:06:57.804Z,16.53
2023-07-05T08:07:57.806Z,16.53
2023-07-05T08:08:57.760Z,16.64
2023-07-05T08:09:57.755Z,16.57
2023-07-05T08:10:57.721Z,16.70
2023-07-05T08:11:57.735Z,16.82
2023-07-05T08:12:57.669Z,16.86
2023-07-05T08:13:57.764Z,16.93
2023-07-05T08:14:57.636Z,16.86
2023-07-05T08:15:57.693Z,16.82
2023-07-05T08:16:57.591Z,16.89
2023-07-05T08:17:57.637Z,16.94
2023-07-05T08:18:57.558Z,17.07
2023-07-05T08:19:57.540Z,17.07
2023-07-05T08:20:57.504Z,17.15
2023-07-05T08:21:57.488Z,17.23
2023-07-05T08:22:57.461Z,17.40
2023-07-05T08:24:00.084Z,17.43
2023-07-05T08:24:57.418Z,17.51
2023-07-05T08:25:57.394Z,17.49
2023-07-05T08:26:57.587Z,17.54
2023-07-05T08:27:57.368Z,17.46
2023-07-05T08:28:57.330Z,17.46
2023-07-05T08:29:57.317Z,17.44
2023-07-05T08:30:57.527Z,17.31
2023-07-05T08:31:57.446Z,17.46
2023-07-05T08:32:57.282Z,17.46
2023-07-05T08:33:57.222Z,17.34
2023-07-05T08:34:57.209Z,17.23
2023-07-05T08:35:57.183Z,17.23
2023-07-05T08:36:57.157Z,17.22
2023-07-05T08:37:57.144Z,17.16
2023-07-05T08:38:57.129Z,17.14
2023-07-05T08:39:57.115Z,17.15
2023-07-05T08:40:57.076Z,17.19
2023-07-05T08:41:57.056Z,17.21
2023-07-05T08:42:57.042Z,17.15
2023-07-05T08:43:57.041Z,17.23
2023-07-05T08:44:56.999Z,17.21
2023-07-05T08:45:57.013Z,17.14
2023-07-05T08:46:56.948Z,17.07
2023-07-05T08:47:57.025Z,17.04
2023-07-05T08:48:56.906Z,17.04
2023-07-05T08:49:56.878Z,17.08
2023-07-05T08:51:13.459Z,17.16
2023-07-05T08:51:56.841Z,17.16
2023-07-05T08:52:56.819Z,17.16
2023-07-05T08:53:56.802Z,17.34
2023-07-05T08:54:56.777Z,17.37
2023-07-05T08:55:56.774Z,17.36
2023-07-05T08:56:56.732Z,17.36
2023-07-05T08:57:56.727Z,17.48
2023-07-05T08:58:56.689Z,17.46
2023-07-05T08:59:56.688Z,17.48
2023-07-05T09:00:56.977Z,17.36
2023-07-05T09:01:56.725Z,17.43
2023-07-05T09:02:56.788Z,17.36
2023-07-05T09:03:56.643Z,17.31
2023-07-05T09:04:56.564Z,17.12
2023-07-05T09:05:56.599Z,17.22
2023-07-05T09:06:56.520Z,17.15
2023-07-05T09:07:57.678Z,17.11
2023-07-05T09:08:56.524Z,17.23
2023-07-05T09:09:56.467Z,17.12
2023-07-05T09:10:56.839Z,17.08
2023-07-05T09:11:56.411Z,17.03
2023-07-05T09:12:56.438Z,17.04
2023-07-05T09:13:56.443Z,16.83
2023-07-05T09:14:56.346Z,16.82
2023-07-05T09:15:56.367Z,16.86
2023-07-05T09:16:56.352Z,16.91
2023-07-05T09:17:56.389Z,16.89
2023-07-05T09:18:56.266Z,16.82
2023-07-05T09:19:56.235Z,16.85
2023-07-05T09:20:56.584Z,16.94
2023-07-05T09:21:56.245Z,16.78
2023-07-05T09:22:56.194Z,16.82
2023-07-05T09:23:56.176Z,16.82
2023-07-05T09:24:56.132Z,16.71
2023-07-05T09:25:56.380Z,16.78
2023-07-05T09:26:56.089Z,16.73
2023-07-05T09:27:56.061Z,16.68
2023-07-05T09:28:56.043Z,16.63
2023-07-05T09:29:56.025Z,16.70
2023-07-05T09:30:56.044Z,16.52
2023-07-05T09:31:56.024Z,16.52
2023-07-05T09:32:55.959Z,16.57
2023-07-05T09:33:55.930Z,16.53
2023-07-05T09:34:55.906Z,16.50
2023-07-05T09:35:56.286Z,16.50
2023-07-05T09:36:55.863Z,16.49
2023-07-05T09:37:55.844Z,16.50
2023-07-05T09:38:55.821Z,16.70
2023-07-05T09:39:55.818Z,16.75
2023-07-05T09:40:55.783Z,16.91
2023-07-05T09:41:55.762Z,16.89
2023-07-05T09:42:55.740Z,17.07
2023-07-05T09:43:55.716Z,17.30
2023-07-05T09:44:55.701Z,17.46
2023-07-05T09:45:55.921Z,17.37
2023-07-05T09:46:55.716Z,17.51
2023-07-05T09:47:55.783Z,17.63
2023-07-05T09:48:55.613Z,17.62
2023-07-05T09:49:55.597Z,17.64
2023-07-05T09:50:55.570Z,17.66
2023-07-05T09:51:55.540Z,17.72
2023-07-05T09:52:55.516Z,17.68
2023-07-05T09:53:55.506Z,17.66
2023-07-05T09:54:55.488Z,17.66
2023-07-05T09:55:55.628Z,17.51
2023-07-05T09:56:55.442Z,17.55
2023-07-05T09:57:55.421Z,17.52
2023-07-05T09:58:55.406Z,17.48
2023-07-05T09:59:55.377Z,17.56
2023-07-05T10:00:55.353Z,17.36
2023-07-05T10:01:55.351Z,17.38
2023-07-05T10:02:55.416Z,17.37
2023-07-05T10:03:55.428Z,17.26
2023-07-05T10:04:55.271Z,17.26
2023-07-05T10:05:55.617Z,17.25
2023-07-05T10:06:55.223Z,17.19
2023-07-05T10:07:55.207Z,17.08
2023-07-05T10:08:55.207Z,17.03
2023-07-05T10:09:55.163Z,16.98
2023-07-05T10:10:55.137Z,16.96
2023-07-05T10:11:55.153Z,17.00
2023-07-05T10:12:55.103Z,17.00
2023-07-05T10:13:55.110Z,17.01
2023-07-05T10:14:55.054Z,17.06
2023-07-05T10:15:55.210Z,16.94
2023-07-05T10:16:55.077Z,16.97
2023-07-05T10:17:55.045Z,16.97
2023-07-05T10:18:54.964Z,17.03
2023-07-05T10:19:54.984Z,17.00
2023-07-05T10:20:54.919Z,17.07
2023-07-05T10:21:54.907Z,17.15
2023-07-05T10:22:54.880Z,17.19
2023-07-05T10:23:54.863Z,17.30
2023-07-05T10:24:54.845Z,17.26
2023-07-05T10:25:55.106Z,17.26
2023-07-05T10:26:54.792Z,17.34
2023-07-05T10:27:54.773Z,17.31
2023-07-05T10:28:54.751Z,17.30
2023-07-05T10:29:54.740Z,17.31
2023-07-05T10:30:54.717Z,17.36
2023-07-05T10:31:54.723Z,17.37
2023-07-05T10:32:54.688Z,17.31
2023-07-05T10:33:54.652Z,17.34
2023-07-05T10:34:54.625Z,17.37
2023-07-05T10:35:54.948Z,17.34
2023-07-05T10:36:54.603Z,17.43
2023-07-05T10:37:54.564Z,17.51
2023-07-05T10:38:54.536Z,17.59
2023-07-05T10:39:54.521Z,17.71
2023-07-05T10:40:54.496Z,17.82
2023-07-05T10:41:54.479Z,17.90
2023-07-05T10:42:54.449Z,18.10
2023-07-05T10:43:54.457Z,18.11
2023-07-05T10:44:54.416Z,18.21
2023-07-05T10:45:54.766Z,18.36
2023-07-05T10:46:54.369Z,18.48
2023-07-05T10:47:54.413Z,18.44
2023-07-05T10:48:54.330Z,18.45
2023-07-05T10:49:54.319Z,18.37
2023-07-05T10:50:54.621Z,18.30
2023-07-05T10:51:54.282Z,18.26
2023-07-05T10:52:54.238Z,18.18
2023-07-05T10:53:54.216Z,18.15
2023-07-05T10:54:54.196Z,18.14
2023-07-05T10:55:54.440Z,18.23
2023-07-05T10:56:54.159Z,18.11
2023-07-05T10:57:54.136Z,18.14
2023-07-05T10:58:54.114Z,18.11
2023-07-05T10:59:54.095Z,18.15
2023-07-05T11:00:54.295Z,18.21
2023-07-05T11:01:54.176Z,18.07
2023-07-05T11:02:54.058Z,18.18
2023-07-05T11:03:54.007Z,18.12
2023-07-05T11:04:54.031Z,18.12
2023-07-05T11:05:53.968Z,17.97
2023-07-05T11:06:53.949Z,17.99
2023-07-05T11:07:53.939Z,17.93
2023-07-05T11:08:53.929Z,17.97
2023-07-05T11:09:53.878Z,17.95
2023-07-05T11:10:54.156Z,17.95
2023-07-05T11:11:53.836Z,17.93
2023-07-05T11:12:53.826Z,17.87
2023-07-05T11:13:53.851Z,17.89
2023-07-05T11:14:53.793Z,17.70
2023-07-05T11:15:57.484Z,17.52
2023-07-05T11:16:53.848Z,17.54
2023-07-05T11:17:53.790Z,17.48
2023-07-05T11:18:53.683Z,17.46
2023-07-05T11:19:53.692Z,17.33
2023-07-05T11:20:53.870Z,17.37
2023-07-05T11:21:53.668Z,17.62
2023-07-05T11:22:53.664Z,17.75
2023-07-05T11:23:53.697Z,17.99
2023-07-05T11:24:53.595Z,18.14
2023-07-05T11:25:53.550Z,18.29
2023-07-05T11:26:53.515Z,18.29
2023-07-05T11:27:53.504Z,18.37
2023-07-05T11:28:53.474Z,18.39
2023-07-05T11:29:53.493Z,18.36
2023-07-05T11:30:53.427Z,18.35
2023-07-05T11:31:53.528Z,18.29
2023-07-05T11:32:53.412Z,18.08
2023-07-05T11:33:53.396Z,18.14
2023-07-05T11:34:53.346Z,18.05
2023-07-05T11:35:53.328Z,18.03
2023-07-05T11:36:53.315Z,18.07
2023-07-05T11:37:53.288Z,17.99
2023-07-05T11:38:53.251Z,17.96
2023-07-05T11:39:53.313Z,18.12
2023-07-05T11:40:53.214Z,18.29
2023-07-05T11:41:53.199Z,18.47
2023-07-05T11:42:53.173Z,18.69
2023-07-05T11:43:53.152Z,18.82
2023-07-05T11:44:53.127Z,18.94
2023-07-05T11:45:53.156Z,19.23
2023-07-05T11:46:53.094Z,19.32
2023-07-05T11:47:53.108Z,19.44
2023-07-05T11:48:53.053Z,19.58
2023-07-05T11:49:53.036Z,19.62
2023-07-05T11:50:53.217Z,19.66
2023-07-05T11:51:52.989Z,19.66
2023-07-05T11:52:52.961Z,19.77
2023-07-05T11:53:52.952Z,19.92
2023-07-05T11:54:52.921Z,19.88
2023-07-05T11:55:52.928Z,19.91
2023-07-05T11:56:52.881Z,20.02
2023-07-05T11:57:52.862Z,20.02
2023-07-05T11:58:52.844Z,19.99
2023-07-05T11:59:52.831Z,20.17
2023-07-05T12:00:52.856Z,20.32
2023-07-05T12:01:52.864Z,20.26
2023-07-05T12:02:52.844Z,20.32
2023-07-05T12:03:52.787Z,20.16
2023-07-05T12:04:52.727Z,19.96
2023-07-05T12:05:52.708Z,19.80
2023-07-05T12:06:52.683Z,19.68
2023-07-05T12:07:52.672Z,19.61
2023-07-05T12:08:52.641Z,19.48
2023-07-05T12:09:52.621Z,19.36
2023-07-05T12:10:52.657Z,19.32
2023-07-05T12:11:52.608Z,19.32
2023-07-05T12:12:52.560Z,19.39
2023-07-05T12:13:52.582Z,19.46
2023-07-05T12:14:52.508Z,19.65
2023-07-05T12:15:52.561Z,19.80
2023-07-05T12:16:52.485Z,19.81
2023-07-05T12:17:52.588Z,19.62
2023-07-05T12:18:52.433Z,19.74
2023-07-05T12:19:52.420Z,19.66
2023-07-05T12:20:52.603Z,19.54
2023-07-05T12:21:52.375Z,19.47
2023-07-05T12:22:52.362Z,19.39
2023-07-05T12:23:52.332Z,19.36
2023-07-05T12:24:52.324Z,19.39
2023-07-05T12:25:52.295Z,19.32
2023-07-05T12:26:52.278Z,19.31
2023-07-05T12:27:52.293Z,19.48
2023-07-05T12:28:52.225Z,19.63
2023-07-05T12:29:52.209Z,19.76
2023-07-05T12:30:52.309Z,19.88
2023-07-05T12:31:52.213Z,19.94
2023-07-05T12:32:52.209Z,20.03
2023-07-05T12:33:52.131Z,20.10
2023-07-05T12:34:52.100Z,20.32
2023-07-05T12:35:52.552Z,20.43
2023-07-05T12:36:52.070Z,20.57
2023-07-05T12:37:52.038Z,20.69
2023-07-05T12:38:52.022Z,20.70
2023-07-05T12:39:51.999Z,20.72
2023-07-05T12:40:51.977Z,20.67
2023-07-05T12:41:51.961Z,20.67
2023-07-05T12:42:51.941Z,20.58
2023-07-05T12:43:51.965Z,20.52
2023-07-05T12:44:51.904Z,20.48
2023-07-05T12:45:51.879Z,20.36
2023-07-05T12:46:51.912Z,20.21
2023-07-05T12:47:51.853Z,20.02
2023-07-05T12:48:51.821Z,19.95
2023-07-05T12:49:51.798Z,19.84
2023-07-05T12:50:51.812Z,19.71
2023-07-05T12:51:51.763Z,19.58